Time;durP1;ratioP1;P1;durP2;ratioP2;P2;SDS_P1;SDS_P2;PMS_P1;PMS_P2;Temp;Humidity;BMP_temperature;BMP_pressure;BME280_temperature;BME280_humidity;BME280_pressure;Samples;Min_cycle;Max_cycle;Signal;HPM_P1;HPM_P2
2024/03/31 00:00:09;;;;;;;26.43;6.80;;;10.90;77.80;;;;;;5009199;28;20447;-69
2024/03/31 00:02:36;;;;;;;18.67;7.40;;;10.90;77.70;;;;;;5011765;28;20493;-69
2024/03/31 00:05:01;;;;;;;28.47;7.43;;;10.90;77.60;;;;;;5016502;28;20795;-69
2024/03/31 00:07:27;;;;;;;26.23;9.63;;;10.90;77.60;;;;;;5012774;28;20478;-68
2024/03/31 00:09:52;;;;;;;25.37;7.20;;;11.00;77.40;;;;;;5019357;28;20189;-70
2024/03/31 00:12:19;;;;;;;19.70;6.30;;;11.00;76.80;;;;;;5014603;28;20209;-69
2024/03/31 00:14:45;;;;;;;23.63;7.27;;;11.00;76.80;;;;;;5023263;28;20281;-70
2024/03/31 00:17:12;;;;;;;23.13;5.57;;;11.00;76.50;;;;;;5017284;28;20468;-67
2024/03/31 00:19:38;;;;;;;21.60;5.57;;;11.10;75.80;;;;;;5014868;28;20186;-69
2024/03/31 00:22:04;;;;;;;30.10;5.63;;;11.20;75.80;;;;;;5002163;28;20523;-69
2024/03/31 00:24:30;;;;;;;23.03;4.87;;;11.30;75.50;;;;;;5012976;28;20706;-70
2024/03/31 00:26:56;;;;;;;24.50;5.10;;;11.40;74.90;;;;;;5014771;28;20525;-69
2024/03/31 00:29:23;;;;;;;19.57;4.83;;;11.50;73.90;;;;;;5012459;28;20451;-71
2024/03/31 00:31:48;;;;;;;24.73;4.83;;;11.50;73.90;;;;;;5007860;28;20694;-71
2024/03/31 00:34:14;;;;;;;35.40;4.77;;;11.60;73.60;;;;;;5008663;28;20437;-73
2024/03/31 00:36:40;;;;;;;15.43;5.53;;;11.60;73.50;;;;;;5004237;28;20208;-71
2024/03/31 00:39:07;;;;;;;25.30;5.50;;;11.70;73.50;;;;;;5011173;28;20269;-70
2024/03/31 00:41:33;;;;;;;15.43;4.50;;;11.70;73.50;;;;;;5006937;28;20463;-69
2024/03/31 00:43:59;;;;;;;30.43;5.77;;;11.80;73.30;;;;;;5008510;28;20461;-69
2024/03/31 00:46:25;;;;;;;23.23;4.50;;;11.80;73.30;;;;;;5015830;28;20771;-69
2024/03/31 00:48:51;;;;;;;25.30;5.47;;;11.80;73.30;;;;;;5010033;28;20410;-70
2024/03/31 00:51:17;;;;;;;24.37;5.70;;;11.80;73.30;;;;;;5000219;28;20261;-69
2024/03/31 00:53:42;;;;;;;20.17;5.00;;;11.80;73.50;;;;;;5005353;28;20723;-71
2024/03/31 00:56:10;;;;;;;22.80;5.47;;;11.80;73.50;;;;;;5009098;28;20196;-70
2024/03/31 00:58:36;;;;;;;25.17;5.87;;;11.70;73.50;;;;;;5010360;28;20241;-70
2024/03/31 01:01:02;;;;;;;21.20;5.13;;;11.70;73.90;;;;;;5005733;28;20458;-69
2024/03/31 01:03:31;;;;;;;28.20;6.50;;;11.70;74.20;;;;;;5015276;28;20520;-70
2024/03/31 01:05:59;;;;;;;25.97;7.50;;;11.70;74.30;;;;;;5019946;28;20182;-70
2024/03/31 01:08:25;;;;;;;17.70;5.50;;;11.70;74.60;;;;;;5017439;28;20981;-71
2024/03/31 01:10:52;;;;;;;26.03;5.50;;;11.70;74.80;;;;;;5009873;28;20440;-69
2024/03/31 01:13:19;;;;;;;16.47;5.73;;;11.80;74.80;;;;;;5018151;28;22423;-71
2024/03/31 01:15:44;;;;;;;27.13;6.90;;;11.90;74.30;;;;;;5010788;28;20941;-72
2024/03/31 01:18:11;;;;;;;19.80;5.60;;;12.00;73.60;;;;;;5001868;28;20448;-69
2024/03/31 01:20:36;;;;;;;19.80;5.03;;;12.10;73.00;;;;;;5001561;28;20844;-69
2024/03/31 01:23:04;;;;;;;24.63;6.87;;;12.00;73.30;;;;;;5002539;28;20444;-70
2024/03/31 01:25:34;;;;;;;28.10;5.10;;;12.00;73.70;;;;;;5010599;28;20246;-70
2024/03/31 01:27:59;;;;;;;23.47;5.50;;;11.90;74.20;;;;;;5008585;28;20444;-70
2024/03/31 01:30:26;;;;;;;35.37;6.60;;;11.80;74.30;;;;;;5010438;28;20428;-71
2024/03/31 01:32:52;;;;;;;17.87;4.43;;;11.80;74.60;;;;;;5003630;28;20206;-70
2024/03/31 01:35:18;;;;;;;20.80;5.37;;;11.80;74.80;;;;;;5008280;28;21747;-72
2024/03/31 01:37:49;;;;;;;16.47;4.60;;;11.70;74.60;;;;;;5008945;28;20418;-71
2024/03/31 01:40:15;;;;;;;20.43;4.80;;;11.70;74.90;;;;;;5009886;28;20200;-72
2024/03/31 01:42:40;;;;;;;21.73;5.60;;;11.60;75.10;;;;;;5002353;28;20461;-72
2024/03/31 01:45:06;;;;;;;22.73;7.00;;;11.60;75.70;;;;;;5006134;28;20698;-71
2024/03/31 01:47:31;;;;;;;29.37;5.30;;;11.70;75.50;;;;;;5006810;28;20193;-73
2024/03/31 01:49:57;;;;;;;15.60;4.90;;;11.70;75.50;;;;;;5009260;28;20916;-69
2024/03/31 01:52:24;;;;;;;17.20;5.30;;;11.80;75.10;;;;;;5000504;28;20229;-71
2024/03/31 01:54:50;;;;;;;15.80;5.27;;;11.80;74.90;;;;;;5010471;28;20190;-69
2024/03/31 01:57:15;;;;;;;19.40;5.07;;;11.70;75.10;;;;;;5008546;28;20979;-71
2024/03/31 01:59:41;;;;;;;23.67;5.53;;;11.70;75.70;;;;;;5002432;28;20221;-71
2024/03/31 02:02:06;;;;;;;16.23;5.73;;;11.80;75.70;;;;;;5002911;28;20206;-71
2024/03/31 02:04:32;;;;;;;20.90;5.40;;;11.60;75.50;;;;;;5005798;28;20259;-70
2024/03/31 02:06:57;;;;;;;18.87;5.60;;;11.60;75.80;;;;;;5012209;28;20178;-71
2024/03/31 02:09:23;;;;;;;16.33;5.20;;;11.60;75.90;;;;;;5015078;28;20174;-70
2024/03/31 02:11:49;;;;;;;19.17;5.50;;;11.50;75.50;;;;;;5011595;28;20281;-71
2024/03/31 02:14:14;;;;;;;24.80;5.50;;;11.60;75.80;;;;;;5009410;28;20203;-71
2024/03/31 02:16:40;;;;;;;23.10;5.93;;;11.60;75.70;;;;;;5011243;28;20183;-70
2024/03/31 02:19:05;;;;;;;23.70;5.67;;;11.60;75.50;;;;;;5012692;28;20632;-71
2024/03/31 02:21:31;;;;;;;21.93;5.70;;;11.60;75.50;;;;;;5006475;28;21035;-70
2024/03/31 02:23:56;;;;;;;14.53;5.73;;;11.30;76.70;;;;;;5006074;28;20955;-69
2024/03/31 02:26:22;;;;;;;29.87;5.77;;;11.20;77.30;;;;;;5008873;28;20216;-69
2024/03/31 02:28:48;;;;;;;23.27;6.00;;;11.20;77.40;;;;;;5009602;28;20182;-69
2024/03/31 02:31:13;;;;;;;32.37;7.57;;;11.20;77.60;;;;;;5002055;28;20206;-71
2024/03/31 02:33:39;;;;;;;23.43;5.77;;;11.20;77.70;;;;;;5000488;28;20190;-72
2024/03/31 02:36:05;;;;;;;14.97;5.17;;;11.10;78.30;;;;;;5006041;28;21082;-68
2024/03/31 02:38:31;;;;;;;29.83;6.03;;;11.10;78.30;;;;;;5006250;28;20651;-71
2024/03/31 02:40:56;;;;;;;25.83;6.00;;;11.00;78.60;;;;;;4994344;28;20504;-72
2024/03/31 02:43:22;;;;;;;24.33;5.53;;;11.00;78.70;;;;;;5006819;28;20209;-71
2024/03/31 02:45:47;;;;;;;17.53;5.77;;;11.00;79.00;;;;;;5000289;28;20186;-70
2024/03/31 02:48:13;;;;;;;17.67;5.30;;;11.20;78.70;;;;;;5021775;28;20183;-70
2024/03/31 02:50:39;;;;;;;18.60;5.57;;;11.20;78.30;;;;;;5008762;28;20187;-69
2024/03/31 02:53:04;;;;;;;25.17;5.47;;;11.20;78.10;;;;;;5008524;28;20189;-69
2024/03/31 02:55:30;;;;;;;25.00;5.50;;;11.10;78.60;;;;;;5008141;28;20714;-71
2024/03/31 02:57:56;;;;;;;15.33;5.07;;;10.90;79.30;;;;;;5015232;28;20170;-69
2024/03/31 03:00:22;;;;;;;24.57;5.20;;;10.90;79.60;;;;;;5005706;28;20285;-68
2024/03/31 03:02:49;;;;;;;20.20;5.30;;;10.90;79.70;;;;;;5005900;28;21017;-71
2024/03/31 03:05:15;;;;;;;17.73;4.70;;;10.90;79.70;;;;;;5005506;28;20252;-68
2024/03/31 03:07:40;;;;;;;13.97;5.40;;;10.90;79.90;;;;;;5012153;28;20468;-72
2024/03/31 03:10:07;;;;;;;17.60;4.40;;;11.00;79.30;;;;;;5009440;28;20547;-71
2024/03/31 03:12:32;;;;;;;20.97;4.80;;;10.90;79.50;;;;;;5005705;28;20205;-68
2024/03/31 03:14:58;;;;;;;20.83;5.20;;;10.90;79.90;;;;;;5006639;28;20438;-72
2024/03/31 03:17:23;;;;;;;20.97;4.30;;;10.80;80.20;;;;;;5009053;28;20605;-70
2024/03/31 03:19:53;;;;;;;17.80;4.10;;;10.80;80.20;;;;;;5008993;28;20231;-72
2024/03/31 03:22:18;;;;;;;21.37;5.00;;;10.90;80.20;;;;;;5006789;28;20244;-70
2024/03/31 03:24:44;;;;;;;18.27;4.90;;;10.90;80.20;;;;;;5007908;28;20477;-69
2024/03/31 03:27:10;;;;;;;11.83;4.13;;;10.90;80.00;;;;;;5004037;28;20389;-71
2024/03/31 03:29:36;;;;;;;15.90;4.07;;;10.90;80.00;;;;;;5012085;28;20409;-72
2024/03/31 03:32:01;;;;;;;22.30;4.90;;;10.80;80.20;;;;;;5012350;28;20205;-70
2024/03/31 03:34:27;;;;;;;13.03;5.00;;;10.60;80.60;;;;;;5014841;28;20208;-68
2024/03/31 03:36:52;;;;;;;21.00;5.10;;;10.50;81.10;;;;;;5007794;28;20174;-68
2024/03/31 03:39:18;;;;;;;19.57;5.20;;;10.40;81.70;;;;;;5020515;28;20224;-70
2024/03/31 03:41:45;;;;;;;18.83;5.27;;;10.40;81.90;;;;;;5016875;28;20206;-72
2024/03/31 03:44:11;;;;;;;19.07;5.00;;;10.30;82.80;;;;;;5008491;28;20852;-72
2024/03/31 03:46:36;;;;;;;16.10;5.37;;;10.30;83.30;;;;;;5011409;28;21001;-68
2024/03/31 03:49:02;;;;;;;21.33;4.90;;;10.30;83.40;;;;;;5006913;28;20500;-72
2024/03/31 03:51:28;;;;;;;12.40;4.50;;;10.30;83.40;;;;;;5002426;28;20313;-71
2024/03/31 03:53:53;;;;;;;20.33;5.90;;;10.30;83.40;;;;;;5009262;28;20718;-71
2024/03/31 03:56:19;;;;;;;24.00;6.33;;;10.20;83.60;;;;;;5006775;28;20194;-70
2024/03/31 03:58:45;;;;;;;19.57;6.87;;;10.10;84.30;;;;;;5008787;28;20177;-67
2024/03/31 04:01:11;;;;;;;18.47;6.03;;;10.10;84.70;;;;;;5010368;28;20206;-70
2024/03/31 04:03:37;;;;;;;19.57;6.03;;;10.10;84.70;;;;;;5010545;28;20201;-70
2024/03/31 04:06:03;;;;;;;20.53;6.73;;;10.10;85.20;;;;;;5012099;28;21090;-73
2024/03/31 04:08:29;;;;;;;27.57;6.80;;;10.10;85.30;;;;;;5011940;28;20425;-69
2024/03/31 04:10:55;;;;;;;19.03;7.13;;;9.90;85.60;;;;;;5003853;28;20452;-70
2024/03/31 04:13:20;;;;;;;13.87;6.37;;;9.90;86.00;;;;;;5011000;28;20433;-71
2024/03/31 04:15:56;;;;;;;21.10;6.30;;;10.00;86.30;;;;;;5005330;28;20265;-71
2024/03/31 04:18:22;;;;;;;28.53;6.70;;;10.00;86.30;;;;;;5007841;28;20182;-72
2024/03/31 04:20:47;;;;;;;15.20;5.90;;;10.00;86.50;;;;;;5006462;28;20800;-71
2024/03/31 04:23:14;;;;;;;23.73;7.10;;;10.20;86.30;;;;;;5006470;28;20186;-70
2024/03/31 04:25:41;;;;;;;25.33;7.10;;;10.30;86.20;;;;;;5011694;28;20178;-70
2024/03/31 04:28:06;;;;;;;17.47;5.80;;;10.30;86.00;;;;;;5010153;28;20428;-70
2024/03/31 04:30:42;;;;;;;24.83;7.23;;;10.30;85.90;;;;;;5012749;28;20826;-71
2024/03/31 04:33:09;;;;;;;15.83;6.80;;;10.30;85.90;;;;;;5009593;28;20667;-71
2024/03/31 04:35:38;;;;;;;17.60;7.37;;;10.40;85.70;;;;;;5015666;28;20486;-71
2024/03/31 04:38:04;;;;;;;21.40;7.07;;;10.40;85.60;;;;;;5016656;28;20440;-71
2024/03/31 04:40:30;;;;;;;19.50;6.37;;;10.40;85.60;;;;;;5012848;28;20432;-70
2024/03/31 04:42:55;;;;;;;23.57;7.90;;;10.40;85.70;;;;;;5006642;28;20257;-71
2024/03/31 04:45:23;;;;;;;19.37;7.70;;;10.40;85.60;;;;;;5008918;28;20214;-68
2024/03/31 04:47:48;;;;;;;26.87;8.30;;;10.30;85.70;;;;;;5004639;28;20197;-70
2024/03/31 04:50:15;;;;;;;27.50;8.63;;;10.30;86.00;;;;;;5008092;28;20429;-69
2024/03/31 04:52:41;;;;;;;24.63;8.43;;;10.20;86.20;;;;;;5001989;28;20214;-69
2024/03/31 04:55:09;;;;;;;26.57;7.20;;;10.10;86.50;;;;;;5013337;28;20417;-69
2024/03/31 04:57:35;;;;;;;31.23;9.90;;;10.20;86.50;;;;;;5016921;28;20451;-70
2024/03/31 05:00:00;;;;;;;22.93;8.63;;;10.20;86.60;;;;;;5011360;28;20421;-71
2024/03/31 05:02:26;;;;;;;22.67;7.90;;;10.10;86.60;;;;;;5005505;28;20289;-70
2024/03/31 05:04:51;;;;;;;28.67;7.90;;;10.10;86.60;;;;;;5015191;28;20218;-69
2024/03/31 05:07:18;;;;;;;21.83;7.70;;;10.20;86.60;;;;;;5021579;28;20240;-71
2024/03/31 05:09:44;;;;;;;32.53;9.33;;;10.30;86.50;;;;;;5012963;28;20179;-71
2024/03/31 05:12:09;;;;;;;33.67;8.00;;;10.30;86.30;;;;;;5010254;28;20514;-69
2024/03/31 05:14:35;;;;;;;29.03;8.07;;;10.20;86.30;;;;;;5009240;28;20288;-70
2024/03/31 05:17:03;;;;;;;20.80;8.20;;;10.20;86.30;;;;;;5003507;28;20399;-70
2024/03/31 05:19:29;;;;;;;19.77;7.70;;;10.40;86.30;;;;;;5013692;28;20204;-71
2024/03/31 05:21:54;;;;;;;16.80;6.80;;;10.50;86.00;;;;;;5009722;28;20499;-72
2024/03/31 05:24:20;;;;;;;20.10;7.70;;;10.60;85.70;;;;;;5018331;28;20476;-69
2024/03/31 05:26:46;;;;;;;21.63;7.00;;;10.60;85.30;;;;;;5016480;28;20186;-69
2024/03/31 05:29:11;;;;;;;22.73;7.23;;;10.70;84.90;;;;;;5017720;28;20186;-70
2024/03/31 05:31:37;;;;;;;17.70;7.17;;;10.70;84.40;;;;;;5010167;28;20209;-69
2024/03/31 05:34:03;;;;;;;27.27;8.47;;;10.70;84.30;;;;;;5013152;28;20202;-71
2024/03/31 05:36:29;;;;;;;27.23;8.60;;;10.70;84.30;;;;;;5006559;28;20174;-70
2024/03/31 05:38:55;;;;;;;22.57;9.03;;;10.70;84.00;;;;;;5009718;28;20441;-70
2024/03/31 05:41:22;;;;;;;35.83;8.80;;;10.70;84.00;;;;;;5003175;28;20531;-69
2024/03/31 05:43:48;;;;;;;19.73;8.60;;;10.70;84.10;;;;;;5017157;28;20898;-68
2024/03/31 05:46:14;;;;;;;20.47;9.07;;;10.70;84.10;;;;;;5022411;28;20252;-70
2024/03/31 05:48:40;;;;;;;29.17;8.70;;;10.70;84.10;;;;;;5016064;28;20735;-68
2024/03/31 05:51:05;;;;;;;19.33;8.33;;;10.70;84.10;;;;;;5009644;28;20985;-70
2024/03/31 05:53:31;;;;;;;25.33;8.17;;;10.70;84.00;;;;;;5017700;28;20281;-68
2024/03/31 05:55:56;;;;;;;25.80;8.20;;;10.70;84.10;;;;;;5015281;28;20189;-69
2024/03/31 05:58:22;;;;;;;22.03;8.43;;;10.80;84.00;;;;;;5010903;28;20193;-70
2024/03/31 06:00:48;;;;;;;29.67;8.23;;;10.80;84.00;;;;;;5006565;28;20183;-69
2024/03/31 06:03:15;;;;;;;18.03;6.60;;;10.80;83.80;;;;;;5006064;28;20265;-71
2024/03/31 06:05:40;;;;;;;26.83;6.93;;;10.90;83.70;;;;;;5010848;28;20416;-70
2024/03/31 06:08:08;;;;;;;17.40;6.80;;;10.90;83.60;;;;;;5011146;28;20425;-71
2024/03/31 06:10:35;;;;;;;19.03;8.03;;;10.90;83.40;;;;;;5010997;28;20236;-70
2024/03/31 06:13:02;;;;;;;22.33;7.27;;;11.00;83.40;;;;;;5006661;28;20440;-71
2024/03/31 06:15:27;;;;;;;32.80;7.90;;;10.90;83.10;;;;;;5005572;28;20444;-70
2024/03/31 06:17:53;;;;;;;15.47;6.33;;;10.90;83.30;;;;;;5008619;28;20435;-70
2024/03/31 06:20:18;;;;;;;17.93;6.77;;;10.80;83.10;;;;;;5011640;28;20177;-72
2024/03/31 06:22:44;;;;;;;13.93;6.00;;;10.80;83.30;;;;;;5008729;28;20697;-70
2024/03/31 06:25:09;;;;;;;17.43;5.87;;;10.90;83.30;;;;;;5012200;28;20233;-72
2024/03/31 06:27:35;;;;;;;21.30;6.77;;;10.80;83.10;;;;;;5007939;28;20196;-68
2024/03/31 06:30:02;;;;;;;21.03;5.97;;;10.80;83.10;;;;;;5010077;28;20269;-70
2024/03/31 06:32:28;;;;;;;26.83;6.77;;;10.80;83.30;;;;;;5003626;28;20202;-71
2024/03/31 06:34:53;;;;;;;22.60;6.80;;;10.90;83.30;;;;;;5007987;28;20985;-69
2024/03/31 06:37:19;;;;;;;25.23;6.73;;;11.00;83.00;;;;;;5008083;28;20186;-71
2024/03/31 06:39:45;;;;;;;19.40;6.37;;;11.00;82.80;;;;;;5003339;28;20658;-72
2024/03/31 06:42:11;;;;;;;19.93;7.50;;;11.10;82.50;;;;;;5005181;28;20292;-70
2024/03/31 06:44:37;;;;;;;23.10;7.47;;;11.20;82.20;;;;;;5010770;28;20484;-70
2024/03/31 06:47:03;;;;;;;19.10;6.07;;;11.20;81.90;;;;;;5010027;28;20425;-70
2024/03/31 06:49:28;;;;;;;15.00;6.60;;;11.30;81.80;;;;;;5012727;28;20673;-69
2024/03/31 06:51:54;;;;;;;21.93;6.83;;;11.30;81.80;;;;;;5005068;28;20202;-70
2024/03/31 06:54:20;;;;;;;20.13;6.70;;;11.30;81.80;;;;;;5008005;28;20693;-70
2024/03/31 06:56:45;;;;;;;15.60;6.20;;;11.40;81.70;;;;;;5007789;28;20194;-70
2024/03/31 06:59:11;;;;;;;15.70;5.73;;;11.30;81.40;;;;;;5009217;28;20666;-71
2024/03/31 07:01:37;;;;;;;19.03;6.23;;;11.30;81.50;;;;;;5008113;28;20690;-72
2024/03/31 07:04:02;;;;;;;20.70;5.97;;;11.20;81.80;;;;;;5011478;28;20496;-71
2024/03/31 07:06:28;;;;;;;22.70;6.40;;;11.10;81.90;;;;;;5009259;28;20754;-70
2024/03/31 07:08:53;;;;;;;18.27;5.90;;;11.10;82.10;;;;;;5019299;28;20178;-70
2024/03/31 07:11:19;;;;;;;21.17;5.70;;;11.20;82.20;;;;;;5011871;28;20717;-71
2024/03/31 07:13:46;;;;;;;21.33;6.47;;;11.20;82.10;;;;;;5012829;28;20186;-68
2024/03/31 07:16:12;;;;;;;18.37;7.13;;;11.20;82.10;;;;;;5004090;28;20206;-71
2024/03/31 07:18:37;;;;;;;21.93;6.83;;;11.20;81.90;;;;;;5011419;28;20445;-71
2024/03/31 07:21:03;;;;;;;16.90;7.20;;;11.10;82.10;;;;;;5005146;28;20499;-70
2024/03/31 07:23:29;;;;;;;24.70;7.40;;;11.00;82.20;;;;;;5012388;28;20208;-70
2024/03/31 07:25:56;;;;;;;22.60;6.90;;;10.90;82.40;;;;;;5007450;28;20426;-73
2024/03/31 07:28:24;;;;;;;18.70;6.83;;;10.80;82.80;;;;;;5015602;28;20210;-70
2024/03/31 07:30:50;;;;;;;21.60;6.90;;;10.80;83.00;;;;;;5002298;28;20440;-69
2024/03/31 07:33:16;;;;;;;23.27;6.73;;;10.70;83.30;;;;;;5006670;28;20758;-70
2024/03/31 07:35:41;;;;;;;24.27;8.10;;;10.70;83.40;;;;;;5010055;28;20213;-73
2024/03/31 07:38:07;;;;;;;18.70;6.70;;;10.70;83.40;;;;;;5009005;28;20190;-71
2024/03/31 07:40:34;;;;;;;20.20;7.03;;;10.80;83.60;;;;;;5005877;28;20736;-72
2024/03/31 07:42:59;;;;;;;22.07;6.17;;;10.90;83.30;;;;;;5005985;28;20194;-72
2024/03/31 07:45:25;;;;;;;16.67;4.87;;;11.00;82.80;;;;;;5008879;28;20810;-72
2024/03/31 07:47:52;;;;;;;17.10;4.67;;;11.20;82.20;;;;;;5015623;28;20178;-72
2024/03/31 07:50:18;;;;;;;17.90;5.53;;;11.40;81.50;;;;;;5015179;28;20186;-72
2024/03/31 07:52:44;;;;;;;15.37;5.00;;;11.60;80.80;;;;;;5015810;28;21076;-71
2024/03/31 07:55:10;;;;;;;17.77;5.07;;;11.70;80.00;;;;;;5013679;28;20484;-72
2024/03/31 07:57:35;;;;;;;15.67;4.80;;;11.60;79.50;;;;;;5020006;28;20196;-71
2024/03/31 08:00:02;;;;;;;14.87;6.00;;;11.80;79.50;;;;;;5019538;28;20182;-71
2024/03/31 08:02:27;;;;;;;16.77;6.10;;;12.00;79.00;;;;;;5011159;28;20202;-69
2024/03/31 08:04:53;;;;;;;17.37;5.03;;;12.00;78.30;;;;;;5007939;28;20537;-70
2024/03/31 08:07:18;;;;;;;17.93;4.83;;;12.00;78.30;;;;;;5003373;28;20185;-71
2024/03/31 08:09:45;;;;;;;21.50;5.60;;;12.20;78.10;;;;;;5002409;28;20206;-72
2024/03/31 08:12:11;;;;;;;13.27;4.60;;;12.30;77.70;;;;;;5004393;28;20213;-73
2024/03/31 08:14:37;;;;;;;11.53;4.40;;;12.30;76.40;;;;;;5007472;28;20800;-72
2024/03/31 08:17:02;;;;;;;18.00;4.97;;;12.30;76.20;;;;;;5005724;28;20828;-73
2024/03/31 08:19:28;;;;;;;16.03;3.93;;;12.40;75.90;;;;;;5001871;28;20182;-73
2024/03/31 08:21:53;;;;;;;14.07;4.20;;;12.60;75.20;;;;;;4999084;28;20305;-72
2024/03/31 08:24:19;;;;;;;13.20;4.30;;;12.70;74.30;;;;;;5000370;28;20240;-72
2024/03/31 08:26:45;;;;;;;13.53;4.20;;;12.70;74.20;;;;;;5009034;28;20186;-72
2024/03/31 08:29:11;;;;;;;19.03;5.00;;;12.60;74.30;;;;;;5009282;28;20860;-71
2024/03/31 08:31:37;;;;;;;16.83;4.77;;;12.80;74.50;;;;;;4999502;28;20456;-70
2024/03/31 08:34:02;;;;;;;13.63;5.20;;;12.80;74.00;;;;;;5005198;28;20185;-72
2024/03/31 08:36:28;;;;;;;18.57;4.33;;;12.90;73.70;;;;;;5008547;28;20186;-73
2024/03/31 08:38:53;;;;;;;13.23;5.00;;;13.20;73.20;;;;;;5009893;28;20189;-71
2024/03/31 08:41:38;;;;;;;26.07;5.73;;;13.30;72.10;;;;;;5006499;28;20220;-71
2024/03/31 08:44:06;;;;;;;16.93;4.47;;;13.40;71.70;;;;;;5017053;28;20205;-73
2024/03/31 08:46:32;;;;;;;17.93;4.30;;;13.20;71.70;;;;;;5005449;28;20468;-69
2024/03/31 08:48:58;;;;;;;21.17;5.00;;;13.30;71.70;;;;;;5006729;28;20436;-73
2024/03/31 08:51:24;;;;;;;15.67;4.27;;;13.30;70.80;;;;;;4998832;28;20202;-71
2024/03/31 08:53:51;;;;;;;13.63;3.63;;;13.30;70.70;;;;;;5006291;28;20875;-72
2024/03/31 08:56:17;;;;;;;16.80;3.50;;;13.40;70.80;;;;;;5003769;28;20273;-72
2024/03/31 08:58:43;;;;;;;15.03;3.90;;;13.40;70.70;;;;;;5003517;28;20513;-70
2024/03/31 09:01:13;;;;;;;13.43;3.23;;;13.60;70.50;;;;;;5001082;28;20202;-69
2024/03/31 09:03:39;;;;;;;12.20;3.53;;;13.50;69.70;;;;;;5007173;28;20275;-71
2024/03/31 09:06:04;;;;;;;17.37;4.13;;;13.50;69.90;;;;;;5005435;28;20425;-73
2024/03/31 09:08:30;;;;;;;10.43;3.97;;;13.70;70.40;;;;;;5008520;28;20448;-71
2024/03/31 09:10:55;;;;;;;18.07;3.13;;;13.90;69.80;;;;;;5004594;28;20211;-72
2024/03/31 09:13:21;;;;;;;14.80;3.50;;;14.10;69.10;;;;;;5006835;28;20277;-73
2024/03/31 09:15:47;;;;;;;18.77;4.00;;;14.30;68.30;;;;;;5013537;28;20193;-72
2024/03/31 09:18:12;;;;;;;17.03;4.50;;;14.40;67.70;;;;;;5008116;28;20278;-72
2024/03/31 09:20:38;;;;;;;20.93;4.27;;;14.30;67.90;;;;;;5008028;28;20206;-68
2024/03/31 09:23:04;;;;;;;18.57;4.37;;;14.40;67.90;;;;;;5005113;28;20186;-71
2024/03/31 09:25:29;;;;;;;21.93;3.80;;;14.50;67.90;;;;;;5010704;28;20233;-71
2024/03/31 09:27:56;;;;;;;13.90;3.47;;;14.40;67.50;;;;;;5007159;28;20249;-72
2024/03/31 09:30:29;;;;;;;14.63;3.43;;;14.50;67.20;;;;;;5009547;28;20273;-72
2024/03/31 09:32:56;;;;;;;13.07;3.27;;;14.70;66.70;;;;;;5008719;28;20463;-72
2024/03/31 09:35:25;;;;;;;13.03;3.60;;;14.90;66.30;;;;;;5009866;28;20454;-70
2024/03/31 09:37:52;;;;;;;12.43;4.87;;;14.90;65.10;;;;;;5010186;28;20479;-76
2024/03/31 09:40:18;;;;;;;16.30;3.27;;;14.90;65.30;;;;;;5009360;28;20450;-72
2024/03/31 09:42:47;;;;;;;19.43;4.60;;;15.00;65.60;;;;;;5005783;28;20460;-71
2024/03/31 09:45:13;;;;;;;13.60;4.40;;;15.20;65.10;;;;;;5008245;28;20484;-71
2024/03/31 09:47:48;;;;;;;19.67;4.30;;;14.90;65.00;;;;;;5010233;28;20902;-71
2024/03/31 09:50:29;;;;;;;24.33;4.30;;;14.90;65.40;;;;;;5018930;28;20431;-72
2024/03/31 09:53:04;;;;;;;13.63;3.40;;;15.10;65.10;;;;;;5022613;28;20460;-71
2024/03/31 09:55:40;;;;;;;11.57;4.40;;;15.30;64.80;;;;;;5019142;28;20452;-72
2024/03/31 09:58:11;;;;;;;15.37;3.20;;;15.40;64.50;;;;;;5011598;28;20428;-72
2024/03/31 10:00:40;;;;;;;19.23;3.60;;;15.50;64.40;;;;;;5011733;28;20460;-72
2024/03/31 10:03:12;;;;;;;14.53;4.10;;;15.50;64.10;;;;;;5011474;28;20493;-74
2024/03/31 10:05:40;;;;;;;18.10;4.07;;;15.50;64.20;;;;;;5016025;28;20552;-71
2024/03/31 10:08:08;;;;;;;12.70;3.87;;;15.70;63.90;;;;;;5013745;28;20432;-72
2024/03/31 10:10:35;;;;;;;24.53;4.03;;;15.70;63.80;;;;;;5011312;28;20429;-73
2024/03/31 10:13:03;;;;;;;19.43;4.87;;;15.80;63.80;;;;;;5003073;28;20444;-71
2024/03/31 10:15:31;;;;;;;21.63;4.33;;;16.10;63.20;;;;;;5011911;28;20424;-71
2024/03/31 10:17:59;;;;;;;21.93;4.10;;;16.30;62.90;;;;;;5006809;28;20500;-70
2024/03/31 10:20:27;;;;;;;20.13;3.60;;;16.20;62.60;;;;;;5011297;28;20477;-70
2024/03/31 10:22:54;;;;;;;12.17;4.37;;;16.30;62.50;;;;;;5015722;28;20467;-71
2024/03/31 10:25:22;;;;;;;23.67;4.83;;;16.50;62.60;;;;;;5013818;28;20552;-73
2024/03/31 10:27:52;;;;;;;23.57;4.27;;;16.60;61.90;;;;;;5007891;28;20512;-71
2024/03/31 10:30:18;;;;;;;22.47;4.00;;;16.80;61.90;;;;;;5010855;28;20885;-73
2024/03/31 10:32:46;;;;;;;27.27;4.00;;;16.70;62.00;;;;;;5013976;28;20479;-72
2024/03/31 10:35:14;;;;;;;15.33;3.73;;;16.50;62.60;;;;;;5016129;28;20446;-71
2024/03/31 10:37:41;;;;;;;21.57;4.30;;;16.60;62.50;;;;;;5017714;28;20432;-71
2024/03/31 10:40:11;;;;;;;20.70;4.60;;;16.70;62.60;;;;;;5019514;28;20447;-72
2024/03/31 10:42:37;;;;;;;19.93;4.40;;;16.80;62.50;;;;;;5014931;28;20465;-72
2024/03/31 10:45:04;;;;;;;18.57;4.57;;;16.90;62.50;;;;;;5014307;28;20537;-73
2024/03/31 10:47:29;;;;;;;14.63;3.83;;;17.10;62.20;;;;;;5015153;28;20502;-73
2024/03/31 10:49:57;;;;;;;18.47;3.53;;;17.30;61.20;;;;;;5015188;28;20455;-74
2024/03/31 10:52:31;;;;;;;19.93;3.87;;;17.60;60.00;;;;;;5009843;28;20293;-72
2024/03/31 10:54:59;;;;;;;20.60;4.10;;;17.80;59.50;;;;;;5013175;28;20436;-73
2024/03/31 10:57:37;;;;;;;20.83;3.50;;;17.70;59.20;;;;;;5011572;28;20432;-74
2024/03/31 11:00:05;;;;;;;17.33;3.70;;;18.10;58.50;;;;;;5009895;28;21049;-75
2024/03/31 11:02:35;;;;;;;18.40;3.97;;;18.40;57.00;;;;;;5008034;28;20464;-75
2024/03/31 11:05:03;;;;;;;17.63;3.80;;;18.50;56.90;;;;;;5013193;28;20499;-73
2024/03/31 11:07:31;;;;;;;18.80;3.60;;;18.70;56.80;;;;;;5011653;28;20429;-73
2024/03/31 11:09:57;;;;;;;12.93;3.57;;;18.70;56.20;;;;;;5015912;28;20453;-72
2024/03/31 11:12:24;;;;;;;22.27;4.03;;;18.70;56.40;;;;;;5009183;28;20528;-73
2024/03/31 11:14:52;;;;;;;17.73;3.47;;;18.80;56.80;;;;;;5010997;28;20186;-73
2024/03/31 11:17:18;;;;;;;14.00;3.50;;;18.70;56.40;;;;;;5012763;28;20452;-74
2024/03/31 11:19:44;;;;;;;15.00;3.50;;;18.70;56.80;;;;;;5011667;28;20431;-73
2024/03/31 11:22:11;;;;;;;14.87;3.07;;;18.60;56.50;;;;;;5008452;28;20511;-72
2024/03/31 11:24:38;;;;;;;18.80;3.60;;;18.60;56.10;;;;;;5011030;28;20988;-73
2024/03/31 11:27:04;;;;;;;9.73;2.90;;;18.50;56.00;;;;;;5006548;28;20822;-72
2024/03/31 11:29:30;;;;;;;23.20;3.30;;;18.40;56.40;;;;;;5006185;28;20495;-73
2024/03/31 11:31:59;;;;;;;13.27;3.20;;;18.50;56.80;;;;;;5002707;28;20902;-74
2024/03/31 11:34:26;;;;;;;11.90;3.40;;;18.60;56.60;;;;;;5006039;28;20453;-73
2024/03/31 11:36:51;;;;;;;12.50;3.80;;;18.70;56.50;;;;;;5004546;28;20443;-71
2024/03/31 11:39:17;;;;;;;19.47;3.97;;;18.80;56.40;;;;;;5004115;28;20454;-74
2024/03/31 11:41:44;;;;;;;24.80;3.97;;;18.80;55.80;;;;;;4997182;28;20213;-73
2024/03/31 11:44:10;;;;;;;17.97;4.23;;;18.80;56.10;;;;;;4999810;28;20221;-72
2024/03/31 11:46:36;;;;;;;10.93;3.33;;;18.90;56.10;;;;;;5011583;28;20961;-73
2024/03/31 11:49:02;;;;;;;20.37;3.33;;;19.10;56.00;;;;;;5008729;28;20437;-68
2024/03/31 11:51:32;;;;;;;22.60;3.50;;;19.30;55.30;;;;;;5003671;28;21047;-70
2024/03/31 11:53:58;;;;;;;24.20;4.10;;;19.60;54.90;;;;;;5002360;28;20955;-70
2024/03/31 11:56:24;;;;;;;137.17;74.53;;;19.80;54.40;;;;;;5005575;28;20505;-68
2024/03/31 11:58:49;;;;;;;46.50;24.30;;;19.80;54.10;;;;;;5004389;28;20462;-71
2024/03/31 12:01:23;;;;;;;13.87;4.43;;;20.10;54.10;;;;;;5000105;28;20217;-71
2024/03/31 12:03:55;;;;;;;18.43;5.97;;;20.30;53.70;;;;;;5004066;28;20233;-72
2024/03/31 12:06:25;;;;;;;19.43;3.57;;;20.30;53.70;;;;;;5006143;28;20437;-72
2024/03/31 12:08:52;;;;;;;17.63;5.00;;;20.20;53.70;;;;;;5000974;28;20464;-72
2024/03/31 12:11:21;;;;;;;20.23;4.43;;;19.90;54.50;;;;;;5000892;28;20462;-71
2024/03/31 12:13:48;;;;;;;15.37;3.60;;;19.80;54.80;;;;;;5011921;28;20429;-74
2024/03/31 12:16:18;;;;;;;11.97;3.77;;;19.90;55.30;;;;;;5010416;28;20448;-72
2024/03/31 12:18:44;;;;;;;27.80;4.60;;;19.80;54.80;;;;;;5005956;28;20432;-73
2024/03/31 12:21:09;;;;;;;20.53;4.23;;;19.80;55.00;;;;;;4997470;28;20481;-72
2024/03/31 12:23:36;;;;;;;15.07;4.03;;;19.70;55.40;;;;;;5006448;28;20417;-71
2024/03/31 12:26:05;;;;;;;21.73;3.83;;;19.80;55.00;;;;;;5004149;28;20198;-73
2024/03/31 12:28:31;;;;;;;13.90;3.43;;;19.80;54.80;;;;;;5007314;28;20774;-71
2024/03/31 12:30:57;;;;;;;16.03;3.90;;;19.60;54.90;;;;;;4996997;28;20556;-72